createdAt,value
2018-11-23T00:02:06.752Z,14.10
2018-11-23T00:04:33.990Z,13.10
2018-11-23T00:07:01.197Z,12.60
2018-11-23T00:09:28.461Z,12.20
2018-11-23T00:11:55.808Z,13.57
2018-11-23T00:14:23.022Z,12.20
2018-11-23T00:16:50.254Z,12.27
2018-11-23T00:19:17.771Z,13.63
2018-11-23T00:21:44.914Z,13.87
2018-11-23T00:24:12.270Z,13.70
2018-11-23T00:26:39.418Z,12.83
2018-11-23T00:29:06.661Z,14.10
2018-11-23T00:31:33.952Z,13.77
2018-11-23T00:34:01.202Z,12.10
2018-11-23T00:36:28.595Z,12.57
2018-11-23T00:38:55.840Z,12.77
2018-11-23T00:41:23.212Z,11.33
2018-11-23T00:43:50.417Z,11.30
2018-11-23T00:46:18.460Z,12.20
2018-11-23T00:48:45.658Z,13.27
2018-11-23T00:51:12.885Z,13.20
2018-11-23T00:53:40.082Z,12.90
2018-11-23T00:56:07.496Z,12.03
2018-11-23T00:58:34.664Z,13.17
2018-11-23T01:01:01.819Z,11.70
2018-11-23T01:03:29.076Z,11.53
2018-11-23T01:05:56.225Z,12.63
2018-11-23T01:08:23.442Z,13.10
2018-11-23T01:10:50.700Z,11.80
2018-11-23T01:13:17.901Z,12.20
2018-11-23T01:15:45.146Z,11.67
2018-11-23T01:18:12.396Z,11.37
2018-11-23T01:20:39.602Z,12.10
2018-11-23T01:23:07.584Z,12.63
2018-11-23T01:25:34.778Z,11.37
2018-11-23T01:28:02.230Z,12.43
2018-11-23T01:30:30.638Z,11.23
2018-11-23T01:32:57.854Z,11.53
2018-11-23T01:35:25.026Z,11.67
2018-11-23T01:37:52.167Z,10.90
2018-11-23T01:40:22.343Z,11.47
2018-11-23T01:42:49.732Z,11.60
2018-11-23T01:45:16.995Z,11.17
2018-11-23T01:47:44.195Z,11.40
2018-11-23T01:50:15.641Z,11.23
2018-11-23T01:52:43.870Z,11.20
2018-11-23T01:55:12.328Z,11.50
2018-11-23T01:57:40.433Z,10.90
2018-11-23T02:00:10.998Z,11.37
2018-11-23T02:02:38.214Z,11.37
2018-11-23T02:05:05.862Z,11.00
2018-11-23T02:07:33.060Z,12.10
2018-11-23T02:10:00.324Z,10.67
2018-11-23T02:12:27.560Z,11.20
2018-11-23T02:14:54.774Z,12.00
2018-11-23T02:17:23.106Z,12.00
2018-11-23T02:19:51.824Z,10.67
2018-11-23T02:22:19.146Z,12.90
2018-11-23T02:24:46.440Z,12.50
2018-11-23T02:27:13.795Z,11.63
2018-11-23T02:29:40.990Z,11.50
2018-11-23T02:32:08.324Z,12.23
2018-11-23T02:34:35.660Z,12.90
2018-11-23T02:37:03.006Z,11.60
2018-11-23T02:39:30.374Z,11.90
2018-11-23T02:41:57.619Z,12.43
2018-11-23T02:44:24.790Z,12.00
2018-11-23T02:46:52.026Z,12.30
2018-11-23T02:49:19.276Z,12.90
2018-11-23T02:51:46.574Z,13.10
2018-11-23T02:54:13.781Z,12.80
2018-11-23T02:56:43.588Z,12.17
2018-11-23T02:59:12.118Z,11.93
2018-11-23T03:01:39.687Z,11.83
2018-11-23T03:04:07.652Z,12.10
2018-11-23T03:06:35.169Z,12.20
2018-11-23T03:09:02.670Z,13.00
2018-11-23T03:11:29.837Z,13.10
2018-11-23T03:13:57.042Z,13.03
2018-11-23T03:16:24.322Z,12.97
2018-11-23T03:18:52.147Z,12.87
2018-11-23T03:21:20.894Z,12.60
2018-11-23T03:23:52.123Z,12.70
2018-11-23T03:26:22.033Z,13.13
2018-11-23T03:28:50.027Z,12.53
2018-11-23T03:31:17.183Z,11.70
2018-11-23T03:33:44.458Z,12.30
2018-11-23T03:36:11.764Z,12.23
2018-11-23T03:38:47.147Z,12.40
2018-11-23T03:41:15.327Z,12.20
2018-11-23T03:43:42.799Z,11.67
2018-11-23T03:46:10.016Z,11.70
2018-11-23T03:48:38.058Z,11.90
2018-11-23T03:51:05.584Z,11.90
2018-11-23T03:53:32.787Z,12.20
2018-11-23T03:56:00.845Z,11.03
2018-11-23T03:58:28.045Z,11.30
2018-11-23T04:00:55.245Z,12.13
2018-11-23T04:03:22.467Z,11.47
2018-11-23T04:05:49.758Z,11.60
2018-11-23T04:08:16.998Z,11.73
2018-11-23T04:10:44.223Z,11.43
2018-11-23T04:13:11.427Z,12.70
2018-11-23T04:15:38.656Z,10.93
2018-11-23T04:18:05.907Z,11.27
2018-11-23T04:20:35.259Z,11.17
2018-11-23T04:23:02.460Z,11.60
2018-11-23T04:25:30.429Z,12.10
2018-11-23T04:27:57.596Z,12.07
2018-11-23T04:30:24.849Z,13.77
2018-11-23T04:32:52.797Z,12.07
2018-11-23T04:35:20.165Z,11.40
2018-11-23T04:37:47.867Z,12.10
2018-11-23T04:40:16.056Z,11.87
2018-11-23T04:42:43.518Z,11.27
2018-11-23T04:45:11.083Z,11.10
2018-11-23T04:47:40.538Z,11.67
2018-11-23T04:50:09.426Z,11.17
2018-11-23T04:52:36.744Z,9.97
2018-11-23T04:55:04.663Z,12.00
2018-11-23T04:57:31.968Z,11.23
2018-11-23T05:00:07.292Z,12.20
2018-11-23T05:02:34.954Z,11.10
2018-11-23T05:05:03.147Z,11.10
2018-11-23T05:07:31.340Z,11.73
2018-11-23T05:10:00.648Z,11.30
2018-11-23T05:12:27.960Z,11.47
2018-11-23T05:14:55.210Z,11.97
2018-11-23T05:17:22.400Z,11.77
2018-11-23T05:19:49.771Z,10.90
2018-11-23T05:22:17.010Z,11.33
2018-11-23T05:24:44.272Z,12.37
2018-11-23T05:27:11.539Z,11.93
2018-11-23T05:29:38.827Z,13.03
2018-11-23T05:32:05.993Z,11.60
2018-11-23T05:34:33.246Z,11.77
2018-11-23T05:37:00.504Z,11.90
2018-11-23T05:39:27.690Z,12.00
2018-11-23T05:41:54.885Z,12.23
2018-11-23T05:44:23.246Z,12.20
2018-11-23T05:46:50.572Z,12.27
2018-11-23T05:49:17.770Z,11.30
2018-11-23T05:51:44.941Z,12.83
2018-11-23T05:54:12.274Z,11.60
2018-11-23T05:56:39.469Z,12.30
2018-11-23T05:59:06.823Z,11.77
2018-11-23T06:01:34.039Z,11.00
2018-11-23T06:04:01.558Z,10.57
2018-11-23T06:06:28.782Z,11.20
2018-11-23T06:08:56.010Z,11.70
2018-11-23T06:11:23.290Z,10.57
2018-11-23T06:13:50.607Z,11.00
2018-11-23T06:16:17.972Z,11.13
2018-11-23T06:18:46.921Z,9.97
2018-11-23T06:21:14.301Z,11.07
2018-11-23T06:23:41.505Z,11.60
2018-11-23T06:26:13.506Z,10.93
2018-11-23T06:28:40.830Z,11.30
2018-11-23T06:31:08.066Z,10.97
2018-11-23T06:33:41.262Z,11.50
2018-11-23T06:36:08.553Z,10.93
2018-11-23T06:38:35.919Z,11.50
2018-11-23T06:41:10.045Z,11.87
2018-11-23T06:43:30.751Z,11.60
2018-11-23T06:45:59.138Z,11.77
2018-11-23T06:48:26.466Z,11.63
2018-11-23T06:50:55.063Z,13.03
2018-11-23T06:53:22.622Z,12.77
2018-11-23T06:55:50.658Z,12.80
2018-11-23T06:58:17.946Z,12.80
2018-11-23T07:00:45.306Z,12.00
2018-11-23T07:03:12.475Z,11.37
2018-11-23T07:05:40.093Z,13.00
2018-11-23T07:08:08.423Z,13.60
2018-11-23T07:10:35.677Z,12.30
2018-11-23T07:13:03.003Z,12.03
2018-11-23T07:15:32.470Z,11.60
2018-11-23T07:17:59.762Z,13.20
2018-11-23T07:20:28.959Z,11.83
2018-11-23T07:22:56.549Z,12.87
2018-11-23T07:25:23.802Z,12.27
2018-11-23T07:27:51.284Z,11.70
2018-11-23T07:30:22.980Z,11.47
2018-11-23T07:32:50.152Z,11.13
2018-11-23T07:35:17.825Z,12.23
2018-11-23T07:37:45.140Z,11.97
2018-11-23T07:40:25.838Z,11.30
2018-11-23T07:42:53.627Z,10.50
2018-11-23T07:45:21.138Z,11.90
2018-11-23T07:47:49.002Z,12.97
2018-11-23T07:50:16.241Z,11.40
2018-11-23T07:52:43.828Z,10.70
2018-11-23T07:55:11.984Z,11.83
2018-11-23T07:57:40.078Z,11.67
2018-11-23T08:00:14.171Z,11.50
2018-11-23T08:02:41.944Z,13.13
2018-11-23T08:05:10.947Z,11.10
2018-11-23T08:07:38.505Z,12.50
2018-11-23T08:10:08.522Z,12.07
2018-11-23T08:12:35.764Z,13.33
2018-11-23T08:15:03.034Z,12.77
2018-11-23T08:17:30.523Z,12.60
2018-11-23T08:19:57.924Z,12.70
2018-11-23T08:22:25.160Z,13.17
2018-11-23T08:24:55.150Z,12.17
2018-11-23T08:27:22.423Z,12.47
2018-11-23T08:29:49.657Z,12.30
2018-11-23T08:32:16.867Z,11.87
2018-11-23T08:34:44.104Z,11.80
2018-11-23T08:37:11.335Z,12.70
2018-11-23T08:39:38.625Z,12.27
2018-11-23T08:42:06.040Z,13.20
2018-11-23T08:44:33.335Z,12.03
2018-11-23T08:47:00.686Z,13.50
2018-11-23T08:49:27.902Z,14.50
2018-11-23T08:51:55.155Z,18.07
2018-11-23T08:54:22.448Z,13.30
2018-11-23T08:56:49.657Z,16.33
2018-11-23T08:59:16.851Z,14.10
2018-11-23T09:01:44.096Z,14.60
2018-11-23T09:04:11.335Z,14.80
2018-11-23T09:06:39.275Z,13.93
2018-11-23T09:09:08.877Z,14.60
2018-11-23T09:11:36.080Z,15.30
2018-11-23T09:14:04.464Z,15.63
2018-11-23T09:16:31.691Z,14.97
2018-11-23T09:18:59.236Z,16.90
2018-11-23T09:21:26.393Z,13.77
2018-11-23T09:23:54.022Z,15.60
2018-11-23T09:26:21.340Z,16.90
2018-11-23T09:28:48.547Z,17.23
2018-11-23T09:31:15.953Z,16.30
2018-11-23T09:33:43.311Z,15.60
2018-11-23T09:36:10.498Z,16.70
2018-11-23T09:38:37.741Z,16.50
2018-11-23T09:41:05.581Z,15.20
2018-11-23T09:43:32.819Z,15.13
2018-11-23T09:46:00.111Z,16.73
2018-11-23T09:48:27.337Z,16.20
2018-11-23T09:50:55.209Z,16.97
2018-11-23T09:53:23.652Z,16.73
2018-11-23T09:55:52.678Z,16.60
2018-11-23T09:58:20.101Z,16.80
2018-11-23T10:00:47.491Z,17.53
2018-11-23T10:03:14.824Z,18.20
2018-11-23T10:05:42.276Z,17.00
2018-11-23T10:08:09.539Z,19.00
2018-11-23T10:10:38.123Z,16.40
2018-11-23T10:13:05.806Z,14.20
2018-11-23T10:15:33.639Z,19.70
2018-11-23T10:18:02.689Z,18.00
2018-11-23T10:20:31.560Z,15.43
2018-11-23T10:22:58.998Z,16.20
2018-11-23T10:25:27.782Z,17.50
2018-11-23T10:27:55.196Z,16.50
2018-11-23T10:30:24.697Z,18.10
2018-11-23T10:32:53.402Z,16.63
2018-11-23T10:35:22.391Z,17.23
2018-11-23T10:37:51.211Z,16.73
2018-11-23T10:40:20.208Z,17.03
2018-11-23T10:42:47.843Z,16.63
2018-11-23T10:45:18.064Z,17.53
2018-11-23T10:47:45.873Z,18.97
2018-11-23T10:50:15.461Z,18.43
2018-11-23T10:52:43.039Z,18.10
2018-11-23T10:55:13.116Z,17.33
2018-11-23T10:57:40.691Z,17.43
2018-11-23T11:00:15.451Z,17.50
2018-11-23T11:02:43.345Z,16.87
2018-11-23T11:05:16.373Z,18.00
2018-11-23T11:07:43.962Z,16.27
2018-11-23T11:10:11.399Z,17.07
2018-11-23T11:12:38.964Z,17.20
2018-11-23T11:15:06.985Z,18.00
2018-11-23T11:17:34.279Z,16.27
2018-11-23T11:20:01.759Z,17.00
2018-11-23T11:22:29.387Z,17.10
2018-11-23T11:24:56.959Z,16.73
2018-11-23T11:27:24.699Z,16.50
2018-11-23T11:29:52.021Z,16.70
2018-11-23T11:32:19.301Z,16.93
2018-11-23T11:34:46.691Z,17.50
2018-11-23T11:37:13.931Z,16.43
2018-11-23T11:39:41.872Z,16.37
2018-11-23T11:42:09.583Z,16.80
2018-11-23T11:44:37.094Z,18.83
2018-11-23T11:47:05.127Z,17.90
2018-11-23T11:49:32.379Z,16.20
2018-11-23T11:51:59.595Z,16.20
2018-11-23T11:54:26.951Z,16.90
2018-11-23T11:56:54.261Z,20.53
2018-11-23T11:59:21.771Z,15.60
2018-11-23T12:01:49.230Z,17.20
2018-11-23T12:04:16.464Z,17.90
2018-11-23T12:06:44.442Z,15.30
2018-11-23T12:09:11.873Z,16.90
2018-11-23T12:11:39.638Z,16.70
2018-11-23T12:14:07.102Z,22.73
2018-11-23T12:16:34.378Z,16.43
2018-11-23T12:19:01.922Z,15.77
2018-11-23T12:21:29.176Z,16.13
2018-11-23T12:23:56.644Z,17.87
2018-11-23T12:26:24.606Z,18.27
2018-11-23T12:28:51.807Z,16.60
2018-11-23T12:31:18.992Z,16.90
2018-11-23T12:33:46.669Z,17.30
2018-11-23T12:36:14.019Z,17.80
2018-11-23T12:38:43.131Z,16.67
2018-11-23T12:41:09.432Z,17.20
2018-11-23T12:43:36.862Z,16.33
2018-11-23T12:46:04.263Z,17.93
2018-11-23T12:48:32.140Z,17.07
2018-11-23T12:50:59.588Z,18.37
2018-11-23T12:53:26.833Z,17.90
2018-11-23T12:55:54.072Z,17.23
2018-11-23T12:58:21.343Z,18.10
2018-11-23T13:00:48.761Z,17.93
2018-11-23T13:03:16.259Z,16.83
2018-11-23T13:05:43.878Z,18.83
2018-11-23T13:08:11.280Z,17.47
2018-11-23T13:10:38.537Z,17.63
2018-11-23T13:13:06.043Z,17.60
2018-11-23T13:15:33.552Z,18.83
2018-11-23T13:18:01.220Z,18.17
2018-11-23T13:20:28.619Z,17.73
2018-11-23T13:22:55.901Z,19.00
2018-11-23T13:25:25.219Z,17.10
2018-11-23T13:27:52.642Z,18.27
2018-11-23T13:30:25.559Z,17.97
2018-11-23T13:32:52.792Z,17.90
2018-11-23T13:35:20.371Z,17.47
2018-11-23T13:37:47.698Z,19.20
2018-11-23T13:40:16.272Z,17.50
2018-11-23T13:42:43.981Z,15.20
2018-11-23T13:45:12.667Z,17.33
2018-11-23T13:47:40.217Z,17.87
2018-11-23T13:50:09.522Z,19.10
2018-11-23T13:52:36.850Z,19.43
2018-11-23T13:55:04.864Z,17.87
2018-11-23T13:57:32.196Z,17.57
2018-11-23T13:59:59.674Z,17.67
2018-11-23T14:02:27.179Z,17.13
2018-11-23T14:04:54.692Z,18.27
2018-11-23T14:07:22.642Z,18.00
2018-11-23T14:09:50.127Z,18.70
2018-11-23T14:12:18.090Z,18.60
2018-11-23T14:14:45.320Z,17.80
2018-11-23T14:17:12.541Z,17.07
2018-11-23T14:19:39.789Z,18.50
2018-11-23T14:22:07.244Z,18.00
2018-11-23T14:24:34.560Z,18.50
2018-11-23T14:27:01.782Z,18.50
2018-11-23T14:29:29.135Z,17.43
2018-11-23T14:31:56.602Z,18.47
2018-11-23T14:34:23.971Z,18.67
2018-11-23T14:36:51.205Z,19.27
2018-11-23T14:39:18.568Z,17.60
2018-11-23T14:41:45.922Z,18.60
2018-11-23T14:44:13.303Z,18.57
2018-11-23T14:46:40.632Z,18.70
2018-11-23T14:49:07.899Z,19.50
2018-11-23T14:51:35.162Z,17.07
2018-11-23T14:54:02.384Z,18.30
2018-11-23T14:56:31.782Z,18.80
2018-11-23T14:58:58.996Z,17.10
2018-11-23T15:01:26.522Z,17.10
2018-11-23T15:03:53.880Z,17.60
2018-11-23T15:06:22.067Z,17.10
2018-11-23T15:08:50.183Z,17.97
2018-11-23T15:11:18.184Z,17.20
2018-11-23T15:13:47.047Z,16.90
2018-11-23T15:16:14.283Z,16.63
2018-11-23T15:18:41.920Z,17.60
2018-11-23T15:21:09.147Z,17.80
2018-11-23T15:23:36.772Z,17.20
2018-11-23T15:26:04.655Z,18.70
2018-11-23T15:28:32.072Z,17.90
2018-11-23T15:30:59.246Z,17.93
2018-11-23T15:33:26.513Z,16.93
2018-11-23T15:35:53.794Z,17.00
2018-11-23T15:38:22.264Z,16.50
2018-11-23T15:40:49.458Z,17.47
2018-11-23T15:43:17.761Z,17.40
2018-11-23T15:45:44.944Z,17.33
2018-11-23T15:48:12.324Z,17.43
2018-11-23T15:50:40.883Z,18.77
2018-11-23T15:53:09.859Z,19.40
2018-11-23T15:55:38.546Z,17.70
2018-11-23T15:58:07.622Z,17.33
2018-11-23T16:00:37.839Z,16.90
2018-11-23T16:03:06.962Z,17.53
2018-11-23T16:05:34.548Z,18.00
2018-11-23T16:08:03.261Z,18.13
2018-11-23T16:10:32.081Z,18.07
2018-11-23T16:13:00.475Z,19.17
2018-11-23T16:15:28.531Z,20.40
2018-11-23T16:17:56.395Z,18.87
2018-11-23T16:20:26.367Z,20.07
2018-11-23T16:22:56.136Z,19.03
2018-11-23T16:25:24.501Z,19.00
2018-11-23T16:27:54.073Z,18.80
2018-11-23T16:30:22.621Z,19.50
2018-11-23T16:32:51.444Z,19.70
2018-11-23T16:35:21.930Z,21.20
2018-11-23T16:37:50.098Z,20.30
2018-11-23T16:40:19.331Z,19.87
2018-11-23T16:42:47.051Z,20.73
2018-11-23T16:45:16.900Z,21.27
2018-11-23T16:47:44.671Z,19.27
2018-11-23T16:50:12.488Z,19.50
2018-11-23T16:52:40.554Z,19.63
2018-11-23T16:55:09.451Z,18.97
2018-11-23T16:57:37.082Z,19.60
2018-11-23T17:00:08.919Z,18.40
2018-11-23T17:02:36.501Z,17.60
2018-11-23T17:05:03.822Z,16.40
2018-11-23T17:07:31.134Z,17.37
2018-11-23T17:09:58.447Z,16.50
2018-11-23T17:12:26.240Z,17.50
2018-11-23T17:14:53.460Z,17.10
2018-11-23T17:17:22.454Z,19.37
2018-11-23T17:19:49.727Z,17.20
2018-11-23T17:22:16.897Z,16.30
2018-11-23T17:24:44.428Z,17.53
2018-11-23T17:27:11.810Z,17.10
2018-11-23T17:29:39.219Z,16.03
2018-11-23T17:32:06.494Z,16.40
2018-11-23T17:34:34.771Z,16.47
2018-11-23T17:37:02.269Z,16.50
2018-11-23T17:39:31.408Z,18.30
2018-11-23T17:41:58.913Z,16.00
2018-11-23T17:44:26.224Z,16.40
2018-11-23T17:46:53.461Z,15.60
2018-11-23T17:49:20.937Z,19.93
2018-11-23T17:51:48.134Z,15.47
2018-11-23T17:54:15.478Z,16.00
2018-11-23T17:56:42.763Z,15.30
2018-11-23T17:59:10.420Z,15.03
2018-11-23T18:01:37.689Z,14.23
2018-11-23T18:04:04.951Z,14.43
2018-11-23T18:06:32.954Z,15.13
2018-11-23T18:09:00.625Z,14.40
2018-11-23T18:11:28.100Z,14.40
2018-11-23T18:13:56.023Z,15.23
2018-11-23T18:16:23.280Z,13.50
2018-11-23T18:18:50.557Z,14.40
2018-11-23T18:21:17.822Z,14.10
2018-11-23T18:23:45.074Z,15.27
2018-11-23T18:26:12.307Z,15.20
2018-11-23T18:28:40.306Z,15.80
2018-11-23T18:31:07.600Z,14.43
2018-11-23T18:33:34.819Z,14.77
2018-11-23T18:36:02.244Z,14.33
2018-11-23T18:38:29.486Z,14.50
2018-11-23T18:40:56.665Z,14.60
2018-11-23T18:43:23.871Z,13.93
2018-11-23T18:45:51.107Z,13.10
2018-11-23T18:48:18.439Z,14.70
2018-11-23T18:50:45.686Z,13.30
2018-11-23T18:53:13.080Z,13.50
2018-11-23T18:55:40.287Z,13.17
2018-11-23T18:58:07.507Z,13.00
2018-11-23T19:00:35.046Z,12.10
2018-11-23T19:03:02.302Z,12.80
2018-11-23T19:05:29.665Z,12.33
2018-11-23T19:07:56.994Z,12.30
2018-11-23T19:10:24.277Z,13.00
2018-11-23T19:12:51.633Z,12.37
2018-11-23T19:15:25.117Z,11.90
2018-11-23T19:17:46.237Z,13.00
2018-11-23T19:20:21.216Z,12.37
2018-11-23T19:22:49.751Z,12.37
2018-11-23T19:25:17.058Z,12.90
2018-11-23T19:27:44.411Z,11.77
2018-11-23T19:30:13.368Z,12.40
2018-11-23T19:32:40.711Z,14.33
2018-11-23T19:35:10.110Z,11.80
2018-11-23T19:37:38.290Z,10.67
2018-11-23T19:40:16.082Z,11.80
2018-11-23T19:42:45.171Z,10.53
2018-11-23T19:45:14.308Z,11.30
2018-11-23T19:47:42.293Z,11.27
2018-11-23T19:50:15.406Z,12.10
2018-11-23T19:52:42.654Z,11.77
2018-11-23T19:55:11.269Z,14.20
2018-11-23T19:57:38.573Z,11.00
2018-11-23T20:00:15.617Z,11.60
2018-11-23T20:02:43.915Z,12.30
2018-11-23T20:05:11.619Z,12.60
2018-11-23T20:07:39.446Z,12.17
2018-11-23T20:10:15.707Z,12.43
2018-11-23T20:12:44.563Z,11.10
2018-11-23T20:15:14.721Z,11.20
2018-11-23T20:17:42.120Z,11.97
2018-11-23T20:20:10.713Z,11.70
2018-11-23T20:22:38.400Z,11.70
2018-11-23T20:25:10.410Z,11.20
2018-11-23T20:27:37.564Z,11.40
2018-11-23T20:30:09.053Z,11.47
2018-11-23T20:32:36.626Z,12.23
2018-11-23T20:35:05.252Z,11.47
2018-11-23T20:37:32.504Z,11.20
2018-11-23T20:40:00.009Z,12.43
2018-11-23T20:42:27.893Z,12.07
2018-11-23T20:44:55.348Z,12.03
2018-11-23T20:47:22.979Z,13.60
2018-11-23T20:49:50.920Z,12.00
2018-11-23T20:52:18.495Z,14.73
2018-11-23T20:54:46.204Z,11.53
2018-11-23T20:57:13.908Z,12.10
2018-11-23T20:59:41.642Z,12.50
2018-11-23T21:02:09.192Z,11.53
2018-11-23T21:04:36.765Z,11.80
2018-11-23T21:07:04.832Z,11.47
2018-11-23T21:09:32.527Z,12.87
2018-11-23T21:12:00.249Z,11.87
2018-11-23T21:14:27.823Z,12.70
2018-11-23T21:16:55.484Z,11.30
2018-11-23T21:19:23.041Z,12.57
2018-11-23T21:21:50.681Z,12.20
2018-11-23T21:24:18.272Z,21.73
2018-11-23T21:26:46.740Z,13.17
2018-11-23T21:29:14.698Z,11.57
2018-11-23T21:31:42.376Z,13.37
2018-11-23T21:34:12.962Z,12.40
2018-11-23T21:36:40.577Z,11.47
2018-11-23T21:39:13.728Z,13.07
2018-11-23T21:41:37.442Z,12.73
2018-11-23T21:44:04.965Z,12.10
2018-11-23T21:46:32.192Z,12.50
2018-11-23T21:48:59.507Z,12.33
2018-11-23T21:51:26.803Z,12.07
2018-11-23T21:53:54.289Z,13.00
2018-11-23T21:56:21.524Z,11.27
2018-11-23T21:58:48.899Z,12.50
2018-11-23T22:01:16.164Z,12.40
2018-11-23T22:03:43.338Z,11.50
2018-11-23T22:06:10.582Z,13.17
2018-11-23T22:08:37.759Z,11.67
2018-11-23T22:11:05.329Z,12.23
2018-11-23T22:13:32.587Z,11.63
2018-11-23T22:15:59.839Z,12.20
2018-11-23T22:18:27.092Z,12.13
2018-11-23T22:20:54.289Z,11.60
2018-11-23T22:23:21.592Z,12.20
2018-11-23T22:25:48.874Z,12.57
2018-11-23T22:28:16.134Z,13.57
2018-11-23T22:30:43.688Z,12.40
2018-11-23T22:33:11.994Z,13.37
2018-11-23T22:35:39.325Z,12.17
2018-11-23T22:38:07.011Z,13.50
2018-11-23T22:40:34.342Z,12.70
2018-11-23T22:43:01.565Z,13.13
2018-11-23T22:45:28.762Z,13.73
2018-11-23T22:47:55.966Z,13.77
2018-11-23T22:50:24.490Z,12.73
2018-11-23T22:52:51.726Z,13.50
2018-11-23T22:55:19.858Z,13.40
2018-11-23T22:57:47.059Z,14.23
2018-11-23T23:00:23.387Z,13.23
2018-11-23T23:02:51.246Z,14.10
2018-11-23T23:05:19.543Z,13.10
2018-11-23T23:07:46.738Z,12.80
2018-11-23T23:10:13.969Z,13.57
2018-11-23T23:12:41.225Z,13.70
2018-11-23T23:15:09.972Z,14.17
2018-11-23T23:17:37.790Z,13.50
2018-11-23T23:20:07.936Z,14.50
2018-11-23T23:22:35.239Z,14.77
2018-11-23T23:25:02.472Z,14.30
2018-11-23T23:27:29.714Z,15.20
2018-11-23T23:29:57.082Z,15.40
2018-11-23T23:32:26.228Z,15.33
2018-11-23T23:34:53.657Z,16.20
2018-11-23T23:37:21.176Z,16.70
2018-11-23T23:39:48.415Z,15.53
2018-11-23T23:42:15.809Z,16.50
2018-11-23T23:44:43.128Z,16.90
2018-11-23T23:47:10.807Z,17.20
2018-11-23T23:49:41.559Z,15.60
2018-11-23T23:52:09.057Z,18.90
2018-11-23T23:54:36.391Z,15.33
2018-11-23T23:57:03.585Z,17.27
2018-11-23T23:59:30.977Z,17.00
